sensor_id;sensor_type;location;lat;lon;timestamp;pressure;altitude;pressure_sealevel;temperature;humidity
70323;BME280;57735;56.264;43.898;2022-08-24T00:02:18;102096.69;;;21.24;53.92
70323;BME280;57735;56.264;43.898;2022-08-24T00:04:51;102087.56;;;21.17;54.22
70323;BME280;57735;56.264;43.898;2022-08-24T00:07:27;102097.47;;;21.10;54.43
70323;BME280;57735;56.264;43.898;2022-08-24T00:09:58;102088.34;;;21.03;54.87
70323;BME280;57735;56.264;43.898;2022-08-24T00:12:30;102090.75;;;20.98;54.76
70323;BME280;57735;56.264;43.898;2022-08-24T00:15:03;102095.88;;;20.93;55.32
70323;BME280;57735;56.264;43.898;2022-08-24T00:17:35;102097.63;;;20.86;55.68
70323;BME280;57735;56.264;43.898;2022-08-24T00:20:10;102092.72;;;20.81;55.97
70323;BME280;57735;56.264;43.898;2022-08-24T00:22:42;102097.00;;;20.76;56.14
70323;BME280;57735;56.264;43.898;2022-08-24T00:25:13;102094.81;;;20.71;56.63
70323;BME280;57735;56.264;43.898;2022-08-24T00:27:44;102099.09;;;20.66;56.89
70323;BME280;57735;56.264;43.898;2022-08-24T00:30:17;102101.50;;;20.61;57.13
70323;BME280;57735;56.264;43.898;2022-08-24T00:32:48;102095.59;;;20.57;57.26
70323;BME280;57735;56.264;43.898;2022-08-24T00:35:22;102102.38;;;20.53;57.43
70323;BME280;57735;56.264;43.898;2022-08-24T00:37:54;102098.50;;;20.47;57.72
70323;BME280;57735;56.264;43.898;2022-08-24T00:40:29;102097.19;;;20.43;57.73
70323;BME280;57735;56.264;43.898;2022-08-24T00:43:05;102103.28;;;20.37;57.91
70323;BME280;57735;56.264;43.898;2022-08-24T00:45:47;102101.06;;;20.33;57.88
70323;BME280;57735;56.264;43.898;2022-08-24T00:48:24;102103.44;;;20.28;58.23
70323;BME280;57735;56.264;43.898;2022-08-24T00:51:04;102106.72;;;20.23;58.40
70323;BME280;57735;56.264;43.898;2022-08-24T00:53:42;102108.06;;;20.19;58.56
70323;BME280;57735;56.264;43.898;2022-08-24T00:56:22;102101.31;;;20.15;58.82
70323;BME280;57735;56.264;43.898;2022-08-24T00:59:01;102108.09;;;20.11;59.37
70323;BME280;57735;56.264;43.898;2022-08-24T01:01:36;102102.38;;;20.06;59.17
70323;BME280;57735;56.264;43.898;2022-08-24T01:04:10;102101.69;;;20.04;59.31
70323;BME280;57735;56.264;43.898;2022-08-24T01:06:45;102101.34;;;19.99;59.59
70323;BME280;57735;56.264;43.898;2022-08-24T01:09:18;102111.50;;;19.97;59.92
70323;BME280;57735;56.264;43.898;2022-08-24T01:11:49;102103.94;;;19.92;59.93
70323;BME280;57735;56.264;43.898;2022-08-24T01:14:20;102108.00;;;19.88;59.93
70323;BME280;57735;56.264;43.898;2022-08-24T01:16:54;102104.59;;;19.86;59.97
70323;BME280;57735;56.264;43.898;2022-08-24T01:19:48;102107.47;;;19.84;60.10
70323;BME280;57735;56.264;43.898;2022-08-24T01:24:56;102109.84;;;19.79;60.53
70323;BME280;57735;56.264;43.898;2022-08-24T01:27:27;102115.44;;;19.78;60.63
70323;BME280;57735;56.264;43.898;2022-08-24T01:30:04;102114.78;;;19.76;60.57
70323;BME280;57735;56.264;43.898;2022-08-24T01:32:37;102109.72;;;19.73;60.69
70323;BME280;57735;56.264;43.898;2022-08-24T01:35:08;102107.16;;;19.71;60.90
70323;BME280;57735;56.264;43.898;2022-08-24T01:37:39;102110.03;;;19.70;60.91
70323;BME280;57735;56.264;43.898;2022-08-24T01:40:10;102103.28;;;19.66;61.23
70323;BME280;57735;56.264;43.898;2022-08-24T01:42:49;102111.56;;;19.64;61.34
70323;BME280;57735;56.264;43.898;2022-08-24T01:45:21;102109.88;;;19.63;61.49
70323;BME280;57735;56.264;43.898;2022-08-24T01:47:52;102120.00;;;19.61;61.53
70323;BME280;57735;56.264;43.898;2022-08-24T01:50:23;102116.81;;;19.58;61.42
70323;BME280;57735;56.264;43.898;2022-08-24T01:52:57;102114.28;;;19.56;61.49
70323;BME280;57735;56.264;43.898;2022-08-24T01:55:30;102110.06;;;19.54;62.08
70323;BME280;57735;56.264;43.898;2022-08-24T01:58:04;102113.63;;;19.54;61.61
70323;BME280;57735;56.264;43.898;2022-08-24T02:00:35;102119.03;;;19.54;61.71
70323;BME280;57735;56.264;43.898;2022-08-24T02:03:07;102110.06;;;19.54;61.91
70323;BME280;57735;56.264;43.898;2022-08-24T02:05:37;102113.44;;;19.56;61.95
70323;BME280;57735;56.264;43.898;2022-08-24T02:08:11;102118.00;;;19.55;62.25
70323;BME280;57735;56.264;43.898;2022-08-24T02:10:42;102108.19;;;19.54;62.27
70323;BME280;57735;56.264;43.898;2022-08-24T02:13:13;102111.75;;;19.55;62.28
70323;BME280;57735;56.264;43.898;2022-08-24T02:15:44;102119.69;;;19.56;62.18
70323;BME280;57735;56.264;43.898;2022-08-24T02:18:15;102115.97;;;19.57;62.53
70323;BME280;57735;56.264;43.898;2022-08-24T02:20:49;102120.56;;;19.57;62.65
70323;BME280;57735;56.264;43.898;2022-08-24T02:23:20;102127.47;;;19.59;62.71
70323;BME280;57735;56.264;43.898;2022-08-24T02:25:55;102129.19;;;19.60;62.64
70323;BME280;57735;56.264;43.898;2022-08-24T02:28:25;102126.09;;;19.63;62.78
70323;BME280;57735;56.264;43.898;2022-08-24T02:30:58;102130.34;;;19.66;62.56
70323;BME280;57735;56.264;43.898;2022-08-24T02:33:28;102132.72;;;19.69;62.42
70323;BME280;57735;56.264;43.898;2022-08-24T02:36:00;102130.84;;;19.69;62.61
70323;BME280;57735;56.264;43.898;2022-08-24T02:38:31;102129.66;;;19.72;62.77
70323;BME280;57735;56.264;43.898;2022-08-24T02:41:04;102139.31;;;19.74;62.72
70323;BME280;57735;56.264;43.898;2022-08-24T02:43:37;102140.84;;;19.77;62.88
70323;BME280;57735;56.264;43.898;2022-08-24T02:46:18;102137.06;;;19.78;62.79
70323;BME280;57735;56.264;43.898;2022-08-24T02:48:50;102133.19;;;19.80;63.15
70323;BME280;57735;56.264;43.898;2022-08-24T02:51:23;102137.25;;;19.84;62.82
70323;BME280;57735;56.264;43.898;2022-08-24T02:53:58;102136.75;;;19.89;62.85
70323;BME280;57735;56.264;43.898;2022-08-24T02:56:30;102144.53;;;19.92;62.94
70323;BME280;57735;56.264;43.898;2022-08-24T02:59:03;102138.75;;;19.95;62.83
70323;BME280;57735;56.264;43.898;2022-08-24T03:01:34;102140.94;;;20.00;62.76
70323;BME280;57735;56.264;43.898;2022-08-24T03:04:05;102136.88;;;20.04;62.69
70323;BME280;57735;56.264;43.898;2022-08-24T03:06:36;102148.06;;;20.09;62.57
70323;BME280;57735;56.264;43.898;2022-08-24T03:09:07;102147.16;;;20.16;62.56
70323;BME280;57735;56.264;43.898;2022-08-24T03:11:39;102141.91;;;20.23;62.15
70323;BME280;57735;56.264;43.898;2022-08-24T03:14:10;102149.31;;;20.29;62.12
70323;BME280;57735;56.264;43.898;2022-08-24T03:16:42;102146.94;;;20.34;61.87
70323;BME280;57735;56.264;43.898;2022-08-24T03:19:13;102146.28;;;20.40;61.90
70323;BME280;57735;56.264;43.898;2022-08-24T03:21:45;102151.00;;;20.46;61.54
70323;BME280;57735;56.264;43.898;2022-08-24T03:24:15;102154.88;;;20.52;61.54
70323;BME280;57735;56.264;43.898;2022-08-24T03:26:46;102154.00;;;20.60;61.66
70323;BME280;57735;56.264;43.898;2022-08-24T03:29:20;102153.28;;;20.66;61.19
70323;BME280;57735;56.264;43.898;2022-08-24T03:31:51;102149.72;;;20.73;60.92
70323;BME280;57735;56.264;43.898;2022-08-24T03:34:22;102156.94;;;20.81;60.76
70323;BME280;57735;56.264;43.898;2022-08-24T03:36:52;102153.53;;;20.87;60.62
70323;BME280;57735;56.264;43.898;2022-08-24T03:39:23;102161.59;;;20.95;60.40
70323;BME280;57735;56.264;43.898;2022-08-24T03:41:54;102162.59;;;21.02;60.31
70323;BME280;57735;56.264;43.898;2022-08-24T03:44:25;102159.00;;;21.10;59.92
70323;BME280;57735;56.264;43.898;2022-08-24T03:46:56;102166.03;;;21.19;59.53
70323;BME280;57735;56.264;43.898;2022-08-24T03:49:27;102160.59;;;21.27;58.96
70323;BME280;57735;56.264;43.898;2022-08-24T03:51:58;102155.94;;;21.36;58.63
70323;BME280;57735;56.264;43.898;2022-08-24T03:54:29;102158.41;;;21.45;57.89
70323;BME280;57735;56.264;43.898;2022-08-24T03:57:00;102161.56;;;21.57;57.08
70323;BME280;57735;56.264;43.898;2022-08-24T03:59:31;102163.47;;;21.71;56.30
70323;BME280;57735;56.264;43.898;2022-08-24T04:02:02;102165.06;;;21.80;55.90
70323;BME280;57735;56.264;43.898;2022-08-24T04:04:35;102156.50;;;21.91;55.37
70323;BME280;57735;56.264;43.898;2022-08-24T04:07:06;102163.56;;;22.01;55.27
70323;BME280;57735;56.264;43.898;2022-08-24T04:09:37;102162.47;;;22.10;54.87
70323;BME280;57735;56.264;43.898;2022-08-24T04:12:07;102163.00;;;22.20;54.69
70323;BME280;57735;56.264;43.898;2022-08-24T04:14:38;102158.13;;;22.30;54.12
70323;BME280;57735;56.264;43.898;2022-08-24T04:17:10;102164.81;;;22.42;53.78
70323;BME280;57735;56.264;43.898;2022-08-24T04:19:41;102167.03;;;22.53;53.19
70323;BME280;57735;56.264;43.898;2022-08-24T04:22:28;102167.22;;;22.67;52.97
70323;BME280;57735;56.264;43.898;2022-08-24T04:25:00;102157.59;;;22.79;52.51
70323;BME280;57735;56.264;43.898;2022-08-24T04:27:31;102164.88;;;22.93;51.73
70323;BME280;57735;56.264;43.898;2022-08-24T04:30:02;102165.84;;;23.07;51.43
70323;BME280;57735;56.264;43.898;2022-08-24T04:32:34;102164.97;;;23.21;50.90
70323;BME280;57735;56.264;43.898;2022-08-24T04:35:05;102168.66;;;23.35;50.50
70323;BME280;57735;56.264;43.898;2022-08-24T04:37:36;102163.31;;;23.48;50.21
70323;BME280;57735;56.264;43.898;2022-08-24T04:40:08;102163.69;;;23.59;50.34
70323;BME280;57735;56.264;43.898;2022-08-24T04:42:38;102160.63;;;23.69;49.98
70323;BME280;57735;56.264;43.898;2022-08-24T04:45:09;102160.50;;;23.77;49.36
70323;BME280;57735;56.264;43.898;2022-08-24T04:47:43;102162.88;;;23.87;48.54
70323;BME280;57735;56.264;43.898;2022-08-24T04:50:15;102165.47;;;23.95;48.10
70323;BME280;57735;56.264;43.898;2022-08-24T04:52:48;102172.25;;;24.06;47.52
70323;BME280;57735;56.264;43.898;2022-08-24T04:55:22;102170.84;;;24.16;47.20
70323;BME280;57735;56.264;43.898;2022-08-24T04:57:55;102174.50;;;24.30;47.05
70323;BME280;57735;56.264;43.898;2022-08-24T05:00:25;102170.19;;;24.42;46.82
70323;BME280;57735;56.264;43.898;2022-08-24T05:02:56;102169.63;;;24.53;46.59
70323;BME280;57735;56.264;43.898;2022-08-24T05:05:33;102165.69;;;24.62;46.28
70323;BME280;57735;56.264;43.898;2022-08-24T05:08:03;102176.00;;;24.74;45.75
70323;BME280;57735;56.264;43.898;2022-08-24T05:10:38;102173.75;;;24.84;45.71
70323;BME280;57735;56.264;43.898;2022-08-24T05:13:10;102171.50;;;24.94;45.68
70323;BME280;57735;56.264;43.898;2022-08-24T05:15:42;102166.06;;;25.00;45.63
70323;BME280;57735;56.264;43.898;2022-08-24T05:18:15;102164.41;;;25.06;45.43
70323;BME280;57735;56.264;43.898;2022-08-24T05:20:46;102170.09;;;25.11;45.45
70323;BME280;57735;56.264;43.898;2022-08-24T05:23:17;102170.31;;;25.16;45.31
70323;BME280;57735;56.264;43.898;2022-08-24T05:25:49;102175.78;;;25.23;44.96
70323;BME280;57735;56.264;43.898;2022-08-24T05:28:22;102159.63;;;25.28;44.67
70323;BME280;57735;56.264;43.898;2022-08-24T05:30:53;102172.44;;;25.34;44.73
70323;BME280;57735;56.264;43.898;2022-08-24T05:33:23;102161.53;;;25.41;44.47
70323;BME280;57735;56.264;43.898;2022-08-24T05:35:54;102166.59;;;25.44;44.35
70323;BME280;57735;56.264;43.898;2022-08-24T05:38:25;102162.59;;;25.46;44.21
70323;BME280;57735;56.264;43.898;2022-08-24T05:40:56;102171.19;;;25.50;44.15
70323;BME280;57735;56.264;43.898;2022-08-24T05:43:27;102161.53;;;25.54;44.17
70323;BME280;57735;56.264;43.898;2022-08-24T05:46:01;102157.34;;;25.58;43.73
70323;BME280;57735;56.264;43.898;2022-08-24T05:48:32;102154.03;;;25.62;43.40
70323;BME280;57735;56.264;43.898;2022-08-24T05:51:05;102148.56;;;25.69;43.39
70323;BME280;57735;56.264;43.898;2022-08-24T05:53:40;102149.00;;;25.79;42.83
70323;BME280;57735;56.264;43.898;2022-08-24T05:56:13;102144.34;;;25.86;42.77
70323;BME280;57735;56.264;43.898;2022-08-24T05:58:45;102143.28;;;25.94;42.94
70323;BME280;57735;56.264;43.898;2022-08-24T06:01:20;102147.25;;;26.04;42.91
70323;BME280;57735;56.264;43.898;2022-08-24T06:03:54;102148.94;;;26.12;42.31
70323;BME280;57735;56.264;43.898;2022-08-24T06:06:25;102150.59;;;26.26;41.94
70323;BME280;57735;56.264;43.898;2022-08-24T06:08:57;102147.00;;;26.39;41.60
70323;BME280;57735;56.264;43.898;2022-08-24T06:11:37;102146.94;;;26.52;41.50
70323;BME280;57735;56.264;43.898;2022-08-24T06:14:14;102156.63;;;26.61;41.34
70323;BME280;57735;56.264;43.898;2022-08-24T06:16:48;102151.09;;;26.68;41.43
70323;BME280;57735;56.264;43.898;2022-08-24T06:19:19;102153.59;;;26.76;41.21
70323;BME280;57735;56.264;43.898;2022-08-24T06:21:52;102161.75;;;26.83;40.78
70323;BME280;57735;56.264;43.898;2022-08-24T06:24:23;102157.31;;;26.88;41.14
70323;BME280;57735;56.264;43.898;2022-08-24T06:27:15;102151.03;;;26.94;40.87
70323;BME280;57735;56.264;43.898;2022-08-24T06:29:56;102153.91;;;26.99;40.72
70323;BME280;57735;56.264;43.898;2022-08-24T06:32:27;102147.78;;;27.04;40.69
70323;BME280;57735;56.264;43.898;2022-08-24T06:34:58;102150.72;;;27.09;40.56
70323;BME280;57735;56.264;43.898;2022-08-24T06:37:29;102152.53;;;27.22;40.44
70323;BME280;57735;56.264;43.898;2022-08-24T06:40:00;102149.69;;;27.35;40.30
70323;BME280;57735;56.264;43.898;2022-08-24T06:42:31;102164.38;;;27.47;40.04
70323;BME280;57735;56.264;43.898;2022-08-24T06:45:06;102161.56;;;27.60;40.04
70323;BME280;57735;56.264;43.898;2022-08-24T06:47:40;102156.84;;;27.67;40.07
70323;BME280;57735;56.264;43.898;2022-08-24T06:50:11;102165.03;;;27.74;39.64
70323;BME280;57735;56.264;43.898;2022-08-24T06:52:43;102163.53;;;27.78;39.21
70323;BME280;57735;56.264;43.898;2022-08-24T06:55:14;102172.13;;;27.82;39.24
70323;BME280;57735;56.264;43.898;2022-08-24T06:57:44;102164.91;;;27.87;39.22
70323;BME280;57735;56.264;43.898;2022-08-24T07:00:16;102160.66;;;27.91;39.17
70323;BME280;57735;56.264;43.898;2022-08-24T07:02:50;102153.81;;;28.00;39.10
70323;BME280;57735;56.264;43.898;2022-08-24T07:05:21;102160.06;;;28.07;39.03
70323;BME280;57735;56.264;43.898;2022-08-24T07:07:54;102159.63;;;28.10;39.17
70323;BME280;57735;56.264;43.898;2022-08-24T07:10:26;102149.88;;;28.14;39.34
70323;BME280;57735;56.264;43.898;2022-08-24T07:12:57;102164.59;;;28.20;39.67
70323;BME280;57735;56.264;43.898;2022-08-24T07:15:28;102159.50;;;28.24;38.96
70323;BME280;57735;56.264;43.898;2022-08-24T07:18:02;102151.50;;;28.22;39.02
70323;BME280;57735;56.264;43.898;2022-08-24T07:20:34;102148.53;;;28.24;38.92
70323;BME280;57735;56.264;43.898;2022-08-24T07:23:08;102164.31;;;28.28;38.84
70323;BME280;57735;56.264;43.898;2022-08-24T07:25:42;102156.47;;;28.32;38.99
70323;BME280;57735;56.264;43.898;2022-08-24T07:28:13;102156.94;;;28.29;38.85
70323;BME280;57735;56.264;43.898;2022-08-24T07:30:44;102155.88;;;28.30;38.59
70323;BME280;57735;56.264;43.898;2022-08-24T07:33:16;102153.56;;;28.27;39.02
70323;BME280;57735;56.264;43.898;2022-08-24T07:35:49;102149.38;;;28.24;38.78
70323;BME280;57735;56.264;43.898;2022-08-24T07:38:22;102157.78;;;28.29;38.59
70323;BME280;57735;56.264;43.898;2022-08-24T07:40:53;102151.34;;;28.35;38.70
70323;BME280;57735;56.264;43.898;2022-08-24T07:43:24;102165.16;;;28.47;38.49
70323;BME280;57735;56.264;43.898;2022-08-24T07:45:55;102149.00;;;28.57;38.46
70323;BME280;57735;56.264;43.898;2022-08-24T07:48:26;102154.41;;;28.64;38.63
70323;BME280;57735;56.264;43.898;2022-08-24T07:51:05;102148.44;;;28.67;38.45
70323;BME280;57735;56.264;43.898;2022-08-24T07:53:40;102150.03;;;28.74;38.39
70323;BME280;57735;56.264;43.898;2022-08-24T07:56:11;102140.19;;;28.85;37.98
70323;BME280;57735;56.264;43.898;2022-08-24T07:58:42;102135.94;;;28.89;37.06
70323;BME280;57735;56.264;43.898;2022-08-24T08:01:13;102147.44;;;28.98;37.07
70323;BME280;57735;56.264;43.898;2022-08-24T08:03:44;102149.22;;;29.04;36.90
70323;BME280;57735;56.264;43.898;2022-08-24T08:06:16;102139.69;;;29.06;37.27
70323;BME280;57735;56.264;43.898;2022-08-24T08:08:50;102138.63;;;29.07;36.88
70323;BME280;57735;56.264;43.898;2022-08-24T08:11:21;102126.72;;;29.13;36.74
70323;BME280;57735;56.264;43.898;2022-08-24T08:13:54;102129.94;;;29.22;36.55
70323;BME280;57735;56.264;43.898;2022-08-24T08:16:28;102132.13;;;29.32;36.46
70323;BME280;57735;56.264;43.898;2022-08-24T08:18:58;102129.28;;;29.38;36.04
70323;BME280;57735;56.264;43.898;2022-08-24T08:21:29;102132.19;;;29.43;36.23
70323;BME280;57735;56.264;43.898;2022-08-24T08:24:19;102119.75;;;29.52;35.82
70323;BME280;57735;56.264;43.898;2022-08-24T08:26:57;102120.50;;;29.60;35.86
70323;BME280;57735;56.264;43.898;2022-08-24T08:29:33;102118.44;;;29.67;35.50
70323;BME280;57735;56.264;43.898;2022-08-24T08:32:05;102121.69;;;29.75;35.60
70323;BME280;57735;56.264;43.898;2022-08-24T08:34:35;102113.06;;;29.83;34.80
70323;BME280;57735;56.264;43.898;2022-08-24T08:37:09;102121.56;;;29.94;34.32
70323;BME280;57735;56.264;43.898;2022-08-24T08:39:40;102123.66;;;29.98;32.92
70323;BME280;57735;56.264;43.898;2022-08-24T08:42:25;102126.63;;;30.08;33.22
70323;BME280;57735;56.264;43.898;2022-08-24T08:57:08;102115.47;;;30.27;31.28
70323;BME280;57735;56.264;43.898;2022-08-24T08:59:56;102108.25;;;30.37;30.98
70323;BME280;57735;56.264;43.898;2022-08-24T09:11:39;102104.38;;;30.62;30.91
70323;BME280;57735;56.264;43.898;2022-08-24T09:26:35;102100.53;;;30.91;30.60
70323;BME280;57735;56.264;43.898;2022-08-24T09:29:16;102092.03;;;30.93;30.49
70323;BME280;57735;56.264;43.898;2022-08-24T09:37:32;102090.38;;;30.92;31.26
70323;BME280;57735;56.264;43.898;2022-08-24T09:46:12;102088.69;;;30.91;30.98
70323;BME280;57735;56.264;43.898;2022-08-24T09:52:36;102078.19;;;31.04;31.20
70323;BME280;57735;56.264;43.898;2022-08-24T09:58:22;102073.75;;;31.03;29.42
70323;BME280;57735;56.264;43.898;2022-08-24T10:03:56;102081.28;;;31.08;30.66
70323;BME280;57735;56.264;43.898;2022-08-24T10:06:52;102082.75;;;31.10;30.40
70323;BME280;57735;56.264;43.898;2022-08-24T10:09:45;102077.09;;;31.17;30.46
70323;BME280;57735;56.264;43.898;2022-08-24T10:12:48;102075.47;;;31.21;30.59
70323;BME280;57735;56.264;43.898;2022-08-24T10:33:26;102068.88;;;31.55;30.23
70323;BME280;57735;56.264;43.898;2022-08-24T10:39:07;102073.06;;;31.41;30.11
70323;BME280;57735;56.264;43.898;2022-08-24T10:48:38;102055.16;;;31.61;30.39
70323;BME280;57735;56.264;43.898;2022-08-24T10:54:22;102059.47;;;31.90;30.00
70323;BME280;57735;56.264;43.898;2022-08-24T11:02:36;102041.84;;;32.13;28.86
70323;BME280;57735;56.264;43.898;2022-08-24T11:05:11;102046.09;;;32.20;28.88
70323;BME280;57735;56.264;43.898;2022-08-24T11:08:01;102041.75;;;32.24;28.63
70323;BME280;57735;56.264;43.898;2022-08-24T11:10:37;102038.16;;;32.24;28.51
70323;BME280;57735;56.264;43.898;2022-08-24T11:13:23;102030.44;;;32.26;28.52
70323;BME280;57735;56.264;43.898;2022-08-24T11:15:59;102025.28;;;32.35;28.44
70323;BME280;57735;56.264;43.898;2022-08-24T11:18:48;102032.84;;;32.44;28.47
70323;BME280;57735;56.264;43.898;2022-08-24T11:21:35;102027.94;;;32.51;28.12
70323;BME280;57735;56.264;43.898;2022-08-24T11:24:28;102031.28;;;32.53;28.43
70323;BME280;57735;56.264;43.898;2022-08-24T11:27:07;102029.91;;;32.51;28.51
70323;BME280;57735;56.264;43.898;2022-08-24T11:35:36;102025.31;;;32.62;28.40
70323;BME280;57735;56.264;43.898;2022-08-24T11:38:26;102027.56;;;32.65;28.46
70323;BME280;57735;56.264;43.898;2022-08-24T11:41:06;102019.78;;;32.62;28.91
70323;BME280;57735;56.264;43.898;2022-08-24T11:44:07;102014.97;;;32.52;28.43
70323;BME280;57735;56.264;43.898;2022-08-24T11:49:51;102013.38;;;32.56;28.33
70323;BME280;57735;56.264;43.898;2022-08-24T11:52:36;102007.84;;;32.56;28.36
70323;BME280;57735;56.264;43.898;2022-08-24T11:57:58;102005.09;;;32.56;28.38
70323;BME280;57735;56.264;43.898;2022-08-24T12:03:59;101991.59;;;32.59;28.52
70323;BME280;57735;56.264;43.898;2022-08-24T12:07:27;101989.97;;;32.64;28.57
70323;BME280;57735;56.264;43.898;2022-08-24T12:15:38;101984.66;;;32.57;28.21
70323;BME280;57735;56.264;43.898;2022-08-24T12:18:42;101981.91;;;32.57;28.97
70323;BME280;57735;56.264;43.898;2022-08-24T12:21:23;101979.78;;;32.69;28.51
70323;BME280;57735;56.264;43.898;2022-08-24T12:24:11;101977.94;;;32.75;28.26
70323;BME280;57735;56.264;43.898;2022-08-24T12:26:47;101979.69;;;32.86;27.87
70323;BME280;57735;56.264;43.898;2022-08-24T12:30:01;101986.19;;;33.02;27.21
70323;BME280;57735;56.264;43.898;2022-08-24T12:32:35;101976.94;;;33.23;27.23
70323;BME280;57735;56.264;43.898;2022-08-24T12:35:19;101971.09;;;33.51;27.03
70323;BME280;57735;56.264;43.898;2022-08-24T12:40:53;101963.44;;;34.56;25.60
70323;BME280;57735;56.264;43.898;2022-08-24T12:43:45;101962.59;;;35.22;24.78
70323;BME280;57735;56.264;43.898;2022-08-24T12:46:24;101956.75;;;35.49;23.90
70323;BME280;57735;56.264;43.898;2022-08-24T12:49:02;101965.00;;;35.64;23.85
70323;BME280;57735;56.264;43.898;2022-08-24T12:52:01;101961.41;;;35.68;24.30
70323;BME280;57735;56.264;43.898;2022-08-24T12:55:38;101953.59;;;35.76;24.35
70323;BME280;57735;56.264;43.898;2022-08-24T13:00:39;101945.34;;;36.15;23.97
70323;BME280;57735;56.264;43.898;2022-08-24T13:03:33;101949.19;;;36.29;23.25
70323;BME280;57735;56.264;43.898;2022-08-24T13:06:10;101947.56;;;36.57;23.47
70323;BME280;57735;56.264;43.898;2022-08-24T13:08:48;101950.78;;;36.74;22.85
70323;BME280;57735;56.264;43.898;2022-08-24T13:24:59;101925.97;;;37.64;22.09
70323;BME280;57735;56.264;43.898;2022-08-24T13:30:21;101925.97;;;37.64;21.84
70323;BME280;57735;56.264;43.898;2022-08-24T13:33:05;101926.06;;;37.97;22.00
70323;BME280;57735;56.264;43.898;2022-08-24T13:52:21;101907.50;;;35.75;23.67
70323;BME280;57735;56.264;43.898;2022-08-24T13:57:51;101909.88;;;34.05;26.04
70323;BME280;57735;56.264;43.898;2022-08-24T14:00:43;101908.81;;;33.44;27.14
70323;BME280;57735;56.264;43.898;2022-08-24T14:05:53;101903.56;;;32.68;27.48
70323;BME280;57735;56.264;43.898;2022-08-24T14:11:36;101902.66;;;32.04;28.89
70323;BME280;57735;56.264;43.898;2022-08-24T14:14:25;101913.66;;;31.77;28.69
70323;BME280;57735;56.264;43.898;2022-08-24T14:41:25;101896.53;;;30.47;31.42
70323;BME280;57735;56.264;43.898;2022-08-24T14:43:57;101903.75;;;30.37;31.85
70323;BME280;57735;56.264;43.898;2022-08-24T14:46:43;101898.91;;;30.27;32.04
70323;BME280;57735;56.264;43.898;2022-08-24T14:49:35;101892.97;;;30.18;32.07
70323;BME280;57735;56.264;43.898;2022-08-24T14:54:53;101900.56;;;30.11;32.28
70323;BME280;57735;56.264;43.898;2022-08-24T15:00:54;101897.13;;;30.04;32.45
70323;BME280;57735;56.264;43.898;2022-08-24T15:11:47;101895.72;;;29.90;33.25
70323;BME280;57735;56.264;43.898;2022-08-24T15:14:39;101897.44;;;29.79;32.92
70323;BME280;57735;56.264;43.898;2022-08-24T15:17:16;101895.78;;;29.67;33.03
70323;BME280;57735;56.264;43.898;2022-08-24T15:19:58;101892.59;;;29.58;33.17
70323;BME280;57735;56.264;43.898;2022-08-24T15:22:44;101888.81;;;29.47;33.58
70323;BME280;57735;56.264;43.898;2022-08-24T15:28:09;101902.06;;;29.27;34.91
70323;BME280;57735;56.264;43.898;2022-08-24T15:31:03;101894.31;;;29.12;35.06
70323;BME280;57735;56.264;43.898;2022-08-24T15:34:00;101892.28;;;28.96;35.49
70323;BME280;57735;56.264;43.898;2022-08-24T15:36:32;101890.88;;;28.82;35.78
70323;BME280;57735;56.264;43.898;2022-08-24T15:39:06;101897.81;;;28.66;35.81
70323;BME280;57735;56.264;43.898;2022-08-24T15:41:39;101899.72;;;28.54;35.95
70323;BME280;57735;56.264;43.898;2022-08-24T15:44:22;101891.72;;;28.41;36.11
70323;BME280;57735;56.264;43.898;2022-08-24T15:46:58;101880.72;;;28.29;36.10
70323;BME280;57735;56.264;43.898;2022-08-24T15:49:34;101897.91;;;28.18;36.48
70323;BME280;57735;56.264;43.898;2022-08-24T15:52:23;101898.97;;;28.05;36.63
70323;BME280;57735;56.264;43.898;2022-08-24T15:55:03;101900.81;;;27.93;36.94
70323;BME280;57735;56.264;43.898;2022-08-24T15:57:41;101901.00;;;27.80;37.65
70323;BME280;57735;56.264;43.898;2022-08-24T16:00:18;101912.09;;;27.67;38.05
70323;BME280;57735;56.264;43.898;2022-08-24T16:05:53;101913.06;;;27.36;38.64
70323;BME280;57735;56.264;43.898;2022-08-24T16:08:25;101915.75;;;27.24;39.12
70323;BME280;57735;56.264;43.898;2022-08-24T16:11:07;101921.56;;;27.09;39.71
70323;BME280;57735;56.264;43.898;2022-08-24T16:13:49;101914.56;;;26.95;40.10
70323;BME280;57735;56.264;43.898;2022-08-24T16:16:34;101919.50;;;26.80;40.78
70323;BME280;57735;56.264;43.898;2022-08-24T16:19:16;101925.91;;;26.67;40.89
70323;BME280;57735;56.264;43.898;2022-08-24T16:21:58;101927.06;;;26.53;41.52
70323;BME280;57735;56.264;43.898;2022-08-24T16:24:38;101926.09;;;26.41;41.88
70323;BME280;57735;56.264;43.898;2022-08-24T16:27:12;101927.66;;;26.30;42.15
70323;BME280;57735;56.264;43.898;2022-08-24T16:29:51;101920.94;;;26.20;42.33
70323;BME280;57735;56.264;43.898;2022-08-24T16:32:24;101923.53;;;26.08;42.62
70323;BME280;57735;56.264;43.898;2022-08-24T16:37:38;101924.69;;;25.87;43.18
70323;BME280;57735;56.264;43.898;2022-08-24T16:40:09;101925.16;;;25.78;43.63
70323;BME280;57735;56.264;43.898;2022-08-24T16:42:41;101932.09;;;25.67;44.01
70323;BME280;57735;56.264;43.898;2022-08-24T16:45:20;101931.72;;;25.57;44.28
70323;BME280;57735;56.264;43.898;2022-08-24T16:47:51;101929.66;;;25.46;44.65
70323;BME280;57735;56.264;43.898;2022-08-24T16:50:22;101924.63;;;25.36;44.96
70323;BME280;57735;56.264;43.898;2022-08-24T16:52:55;101928.63;;;25.27;45.37
70323;BME280;57735;56.264;43.898;2022-08-24T16:55:29;101924.66;;;25.16;45.71